Terminal Aerodrome Forecast
Issued by NWS Mt. Holly, NJ

Home | Current Version | Previous Version | Text Only | Print | Product List | Glossary On
Versions: 1 2 3 4 5 6 7 8 9 10 11 12 13 14 15 16 17 18 19 20 21
000
FTUS41 KPHI 032335
TAFTTN
TAF
KTTN 032335Z 0400/0424 18004KT P6SM BKN100
     FM040800 09004KT 6SM -SHRA SCT030 OVC080
      TEMPO 0413/0416 3SM SHRA OVC030
     FM041800 06008KT P6SM BKN050
     FM042300 09006KT P6SM SCT050=

USA.gov is the U.S. government's official web portal to all federal, state and local government web resources and services.